sensor_id;sensor_type;location;lat;lon;timestamp;P1;durP1;ratioP1;P2;durP2;ratioP2
3735;SDS011;1883;48.202;16.310;2022-10-16T00:03:51;320.90;;;88.77;;
3735;SDS011;1883;48.202;16.310;2022-10-16T00:06:19;570.87;;;97.53;;
3735;SDS011;1883;48.202;16.310;2022-10-16T00:08:48;421.37;;;91.87;;
3735;SDS011;1883;48.202;16.310;2022-10-16T00:11:16;481.97;;;90.20;;
3735;SDS011;1883;48.202;16.310;2022-10-16T00:27:21;636.50;;;101.10;;
3735;SDS011;1883;48.202;16.310;2022-10-16T00:29:49;749.30;;;107.13;;
3735;SDS011;1883;48.202;16.310;2022-10-16T00:32:16;938.93;;;115.10;;
3735;SDS011;1883;48.202;16.310;2022-10-16T00:34:43;899.03;;;113.00;;
3735;SDS011;1883;48.202;16.310;2022-10-16T00:37:11;827.77;;;104.67;;
3735;SDS011;1883;48.202;16.310;2022-10-16T00:39:39;754.53;;;102.87;;
3735;SDS011;1883;48.202;16.310;2022-10-16T00:42:06;566.93;;;93.93;;
3735;SDS011;1883;48.202;16.310;2022-10-16T00:44:48;714.53;;;98.63;;
3735;SDS011;1883;48.202;16.310;2022-10-16T00:47:19;1236.83;;;122.17;;
3735;SDS011;1883;48.202;16.310;2022-10-16T00:49:49;1325.17;;;125.97;;
3735;SDS011;1883;48.202;16.310;2022-10-16T00:52:19;427.60;;;96.87;;
3735;SDS011;1883;48.202;16.310;2022-10-16T00:54:46;686.93;;;107.33;;
3735;SDS011;1883;48.202;16.310;2022-10-16T00:57:15;510.83;;;100.90;;
3735;SDS011;1883;48.202;16.310;2022-10-16T00:59:42;674.20;;;108.70;;
3735;SDS011;1883;48.202;16.310;2022-10-16T01:02:12;527.60;;;100.97;;
3735;SDS011;1883;48.202;16.310;2022-10-16T01:04:41;544.13;;;103.10;;
3735;SDS011;1883;48.202;16.310;2022-10-16T01:07:12;481.97;;;98.80;;
3735;SDS011;1883;48.202;16.310;2022-10-16T01:09:45;368.60;;;98.07;;
3735;SDS011;1883;48.202;16.310;2022-10-16T01:12:20;372.67;;;95.43;;
3735;SDS011;1883;48.202;16.310;2022-10-16T01:14:56;652.97;;;107.83;;
3735;SDS011;1883;48.202;16.310;2022-10-16T01:17:31;443.33;;;95.93;;
3735;SDS011;1883;48.202;16.310;2022-10-16T01:20:07;347.90;;;89.70;;
3735;SDS011;1883;48.202;16.310;2022-10-16T01:22:44;339.30;;;86.13;;
3735;SDS011;1883;48.202;16.310;2022-10-16T01:25:25;315.97;;;87.87;;
3735;SDS011;1883;48.202;16.310;2022-10-16T01:28:04;344.37;;;86.53;;
3735;SDS011;1883;48.202;16.310;2022-10-16T01:30:35;323.73;;;83.00;;
3735;SDS011;1883;48.202;16.310;2022-10-16T01:33:04;281.87;;;83.20;;
3735;SDS011;1883;48.202;16.310;2022-10-16T01:35:58;313.77;;;82.10;;
3735;SDS011;1883;48.202;16.310;2022-10-16T01:38:29;659.77;;;111.83;;
3735;SDS011;1883;48.202;16.310;2022-10-16T01:41:03;319.53;;;86.47;;
3735;SDS011;1883;48.202;16.310;2022-10-16T01:43:37;313.07;;;81.47;;
3735;SDS011;1883;48.202;16.310;2022-10-16T01:46:07;386.63;;;88.10;;
3735;SDS011;1883;48.202;16.310;2022-10-16T01:48:34;506.47;;;92.53;;
3735;SDS011;1883;48.202;16.310;2022-10-16T01:51:03;400.90;;;87.97;;
3735;SDS011;1883;48.202;16.310;2022-10-16T01:53:33;310.77;;;82.67;;
3735;SDS011;1883;48.202;16.310;2022-10-16T01:56:00;268.30;;;78.80;;
3735;SDS011;1883;48.202;16.310;2022-10-16T01:58:30;384.90;;;84.37;;
3735;SDS011;1883;48.202;16.310;2022-10-16T02:01:03;317.27;;;83.20;;
3735;SDS011;1883;48.202;16.310;2022-10-16T02:03:33;296.00;;;79.80;;
3735;SDS011;1883;48.202;16.310;2022-10-16T02:06:02;330.40;;;80.77;;
3735;SDS011;1883;48.202;16.310;2022-10-16T02:08:29;252.90;;;78.70;;
3735;SDS011;1883;48.202;16.310;2022-10-16T02:10:57;287.37;;;85.00;;
3735;SDS011;1883;48.202;16.310;2022-10-16T02:13:27;296.67;;;84.47;;
3735;SDS011;1883;48.202;16.310;2022-10-16T02:16:34;262.40;;;77.20;;
3735;SDS011;1883;48.202;16.310;2022-10-16T02:19:29;257.37;;;78.67;;
3735;SDS011;1883;48.202;16.310;2022-10-16T02:21:57;352.43;;;79.30;;
3735;SDS011;1883;48.202;16.310;2022-10-16T02:24:27;308.90;;;83.77;;
3735;SDS011;1883;48.202;16.310;2022-10-16T02:27:00;509.83;;;95.47;;
3735;SDS011;1883;48.202;16.310;2022-10-16T02:29:33;471.60;;;84.37;;
3735;SDS011;1883;48.202;16.310;2022-10-16T02:35:25;288.67;;;77.00;;
3735;SDS011;1883;48.202;16.310;2022-10-16T02:37:55;513.77;;;83.80;;
3735;SDS011;1883;48.202;16.310;2022-10-16T03:10:08;408.87;;;68.53;;
3735;SDS011;1883;48.202;16.310;2022-10-16T03:12:35;312.40;;;69.70;;
3735;SDS011;1883;48.202;16.310;2022-10-16T03:15:03;310.93;;;68.87;;
3735;SDS011;1883;48.202;16.310;2022-10-16T03:17:31;237.77;;;64.93;;
3735;SDS011;1883;48.202;16.310;2022-10-16T03:19:59;380.60;;;66.10;;
3735;SDS011;1883;48.202;16.310;2022-10-16T03:22:27;234.73;;;60.43;;
3735;SDS011;1883;48.202;16.310;2022-10-16T03:24:53;540.77;;;71.70;;
3735;SDS011;1883;48.202;16.310;2022-10-16T03:27:58;636.83;;;75.10;;
3735;SDS011;1883;48.202;16.310;2022-10-16T03:30:25;665.57;;;74.53;;
3735;SDS011;1883;48.202;16.310;2022-10-16T03:32:52;424.07;;;64.07;;
3735;SDS011;1883;48.202;16.310;2022-10-16T03:35:19;380.83;;;62.53;;
3735;SDS011;1883;48.202;16.310;2022-10-16T03:37:46;503.87;;;62.27;;
3735;SDS011;1883;48.202;16.310;2022-10-16T03:40:13;247.07;;;56.40;;
3735;SDS011;1883;48.202;16.310;2022-10-16T03:42:41;229.63;;;58.67;;
3735;SDS011;1883;48.202;16.310;2022-10-16T03:47:46;187.40;;;54.77;;
3735;SDS011;1883;48.202;16.310;2022-10-16T03:50:13;159.30;;;52.57;;
3735;SDS011;1883;48.202;16.310;2022-10-16T03:52:40;140.27;;;51.73;;
3735;SDS011;1883;48.202;16.310;2022-10-16T03:55:08;150.03;;;55.27;;
3735;SDS011;1883;48.202;16.310;2022-10-16T03:57:35;146.53;;;52.60;;
3735;SDS011;1883;48.202;16.310;2022-10-16T04:00:02;165.77;;;56.00;;
3735;SDS011;1883;48.202;16.310;2022-10-16T04:58:44;231.37;;;52.00;;
3735;SDS011;1883;48.202;16.310;2022-10-16T05:01:48;374.97;;;55.50;;
3735;SDS011;1883;48.202;16.310;2022-10-16T05:04:29;802.00;;;68.60;;
3735;SDS011;1883;48.202;16.310;2022-10-16T05:07:01;445.47;;;65.07;;
3735;SDS011;1883;48.202;16.310;2022-10-16T05:09:48;251.93;;;43.80;;
3735;SDS011;1883;48.202;16.310;2022-10-16T06:43:46;473.77;;;79.07;;
3735;SDS011;1883;48.202;16.310;2022-10-16T06:46:28;399.97;;;72.50;;
3735;SDS011;1883;48.202;16.310;2022-10-16T06:49:30;450.80;;;72.47;;
3735;SDS011;1883;48.202;16.310;2022-10-16T06:52:12;603.43;;;87.77;;
3735;SDS011;1883;48.202;16.310;2022-10-16T06:54:54;342.57;;;70.93;;
3735;SDS011;1883;48.202;16.310;2022-10-16T06:58:00;333.20;;;66.60;;
3735;SDS011;1883;48.202;16.310;2022-10-16T07:40:42;253.97;;;69.50;;
3735;SDS011;1883;48.202;16.310;2022-10-16T07:43:28;210.67;;;68.83;;
3735;SDS011;1883;48.202;16.310;2022-10-16T07:46:11;174.10;;;63.60;;
3735;SDS011;1883;48.202;16.310;2022-10-16T07:48:58;169.37;;;60.70;;
3735;SDS011;1883;48.202;16.310;2022-10-16T07:51:41;237.73;;;61.67;;
3735;SDS011;1883;48.202;16.310;2022-10-16T07:54:30;412.57;;;70.73;;
3735;SDS011;1883;48.202;16.310;2022-10-16T23:01:31;156.13;;;59.00;;
3735;SDS011;1883;48.202;16.310;2022-10-16T23:04:00;171.17;;;58.40;;
3735;SDS011;1883;48.202;16.310;2022-10-16T23:06:27;151.93;;;60.13;;
3735;SDS011;1883;48.202;16.310;2022-10-16T23:08:56;141.83;;;55.00;;
3735;SDS011;1883;48.202;16.310;2022-10-16T23:11:24;157.13;;;56.13;;
3735;SDS011;1883;48.202;16.310;2022-10-16T23:13:53;155.80;;;55.07;;
3735;SDS011;1883;48.202;16.310;2022-10-16T23:52:37;155.37;;;54.80;;
3735;SDS011;1883;48.202;16.310;2022-10-16T23:55:05;146.13;;;55.50;;
3735;SDS011;1883;48.202;16.310;2022-10-16T23:57:33;141.87;;;56.30;;
